sensor_id;sensor_type;location;lat;lon;timestamp;P1;durP1;ratioP1;P2;durP2;ratioP2
45065;SDS011;30830;53.704;10.004;2022-08-11T00:01:09;2.92;;;2.10;;
45065;SDS011;30830;53.704;10.004;2022-08-11T00:03:41;2.30;;;2.10;;
45065;SDS011;30830;53.704;10.004;2022-08-11T00:06:10;3.17;;;2.00;;
45065;SDS011;30830;53.704;10.004;2022-08-11T00:08:38;2.78;;;2.00;;
45065;SDS011;30830;53.704;10.004;2022-08-11T00:11:05;2.30;;;1.95;;
45065;SDS011;30830;53.704;10.004;2022-08-11T00:13:34;3.50;;;2.47;;
45065;SDS011;30830;53.704;10.004;2022-08-11T00:16:02;2.63;;;1.90;;
45065;SDS011;30830;53.704;10.004;2022-08-11T00:18:41;2.38;;;1.95;;
45065;SDS011;30830;53.704;10.004;2022-08-11T00:21:09;3.75;;;2.30;;
45065;SDS011;30830;53.704;10.004;2022-08-11T00:23:41;2.40;;;2.05;;
45065;SDS011;30830;53.704;10.004;2022-08-11T00:26:09;2.40;;;1.80;;
45065;SDS011;30830;53.704;10.004;2022-08-11T00:28:36;2.95;;;2.13;;
45065;SDS011;30830;53.704;10.004;2022-08-11T00:31:20;2.13;;;1.50;;
45065;SDS011;30830;53.704;10.004;2022-08-11T00:33:53;2.97;;;2.05;;
45065;SDS011;30830;53.704;10.004;2022-08-11T00:36:22;2.95;;;1.98;;
45065;SDS011;30830;53.704;10.004;2022-08-11T00:38:53;2.50;;;2.30;;
45065;SDS011;30830;53.704;10.004;2022-08-11T01:30:36;2.80;;;1.85;;
45065;SDS011;30830;53.704;10.004;2022-08-11T01:39:45;3.38;;;1.73;;
45065;SDS011;30830;53.704;10.004;2022-08-11T01:48:15;2.85;;;2.05;;
45065;SDS011;30830;53.704;10.004;2022-08-11T01:51:16;1.90;;;1.63;;
45065;SDS011;30830;53.704;10.004;2022-08-11T01:54:17;2.00;;;1.90;;
45065;SDS011;30830;53.704;10.004;2022-08-11T02:02:49;3.45;;;2.20;;
45065;SDS011;30830;53.704;10.004;2022-08-11T02:05:38;2.97;;;2.08;;
45065;SDS011;30830;53.704;10.004;2022-08-11T02:08:41;3.75;;;2.25;;
45065;SDS011;30830;53.704;10.004;2022-08-11T02:11:26;2.35;;;2.15;;
45065;SDS011;30830;53.704;10.004;2022-08-11T02:19:23;2.20;;;2.00;;
45065;SDS011;30830;53.704;10.004;2022-08-11T02:25:23;3.08;;;2.10;;
45065;SDS011;30830;53.704;10.004;2022-08-11T02:28:03;3.47;;;2.22;;
45065;SDS011;30830;53.704;10.004;2022-08-11T02:31:01;4.28;;;2.17;;
45065;SDS011;30830;53.704;10.004;2022-08-11T02:33:56;2.20;;;2.00;;
45065;SDS011;30830;53.704;10.004;2022-08-11T02:36:47;1.85;;;1.67;;
45065;SDS011;30830;53.704;10.004;2022-08-11T02:39:19;4.15;;;2.10;;
45065;SDS011;30830;53.704;10.004;2022-08-11T02:41:53;3.03;;;2.20;;
45065;SDS011;30830;53.704;10.004;2022-08-11T02:56:18;6.63;;;2.33;;
45065;SDS011;30830;53.704;10.004;2022-08-11T03:02:19;2.58;;;2.20;;
45065;SDS011;30830;53.704;10.004;2022-08-11T03:05:00;2.25;;;2.00;;
45065;SDS011;30830;53.704;10.004;2022-08-11T03:10:03;2.38;;;2.08;;
45065;SDS011;30830;53.704;10.004;2022-08-11T03:24:48;2.72;;;2.53;;
45065;SDS011;30830;53.704;10.004;2022-08-11T03:30:00;2.50;;;2.30;;
45065;SDS011;30830;53.704;10.004;2022-08-11T03:32:27;2.60;;;2.00;;
45065;SDS011;30830;53.704;10.004;2022-08-11T03:34:58;4.13;;;2.38;;
45065;SDS011;30830;53.704;10.004;2022-08-11T03:37:29;4.20;;;2.42;;
45065;SDS011;30830;53.704;10.004;2022-08-11T03:40:17;2.90;;;2.53;;
45065;SDS011;30830;53.704;10.004;2022-08-11T03:46:34;3.60;;;2.40;;
45065;SDS011;30830;53.704;10.004;2022-08-11T03:49:28;3.95;;;2.08;;
45065;SDS011;30830;53.704;10.004;2022-08-11T03:55:09;2.53;;;2.22;;
45065;SDS011;30830;53.704;10.004;2022-08-11T04:07:43;4.32;;;2.58;;
45065;SDS011;30830;53.704;10.004;2022-08-11T04:22:00;4.28;;;2.80;;
45065;SDS011;30830;53.704;10.004;2022-08-11T04:27:26;3.30;;;2.95;;
45065;SDS011;30830;53.704;10.004;2022-08-11T04:30:09;4.22;;;3.00;;
45065;SDS011;30830;53.704;10.004;2022-08-11T04:35:36;3.03;;;2.75;;
45065;SDS011;30830;53.704;10.004;2022-08-11T04:41:12;3.28;;;2.97;;
45065;SDS011;30830;53.704;10.004;2022-08-11T04:53:00;3.33;;;2.53;;
45065;SDS011;30830;53.704;10.004;2022-08-11T05:13:33;3.42;;;2.92;;
45065;SDS011;30830;53.704;10.004;2022-08-11T05:16:33;2.97;;;2.70;;
45065;SDS011;30830;53.704;10.004;2022-08-11T05:19:25;4.25;;;3.00;;
45065;SDS011;30830;53.704;10.004;2022-08-11T05:22:11;3.13;;;2.83;;
45065;SDS011;30830;53.704;10.004;2022-08-11T05:25:06;4.03;;;3.05;;
45065;SDS011;30830;53.704;10.004;2022-08-11T05:28:01;4.72;;;3.28;;
45065;SDS011;30830;53.704;10.004;2022-08-11T05:30:53;2.83;;;2.63;;
45065;SDS011;30830;53.704;10.004;2022-08-11T05:33:47;2.83;;;2.58;;
45065;SDS011;30830;53.704;10.004;2022-08-11T05:36:48;3.53;;;2.70;;
45065;SDS011;30830;53.704;10.004;2022-08-11T05:39:17;2.85;;;2.65;;
45065;SDS011;30830;53.704;10.004;2022-08-11T05:42:05;3.70;;;2.47;;
45065;SDS011;30830;53.704;10.004;2022-08-11T05:44:52;5.78;;;2.70;;
45065;SDS011;30830;53.704;10.004;2022-08-11T05:47:40;4.75;;;2.72;;
45065;SDS011;30830;53.704;10.004;2022-08-11T05:50:25;3.65;;;3.05;;
45065;SDS011;30830;53.704;10.004;2022-08-11T05:53:11;3.10;;;2.55;;
45065;SDS011;30830;53.704;10.004;2022-08-11T05:55:58;3.78;;;2.88;;
45065;SDS011;30830;53.704;10.004;2022-08-11T06:01:24;4.15;;;2.70;;
45065;SDS011;30830;53.704;10.004;2022-08-11T06:03:56;2.92;;;2.63;;
45065;SDS011;30830;53.704;10.004;2022-08-11T06:06:42;4.43;;;3.08;;
45065;SDS011;30830;53.704;10.004;2022-08-11T06:09:36;3.08;;;2.78;;
45065;SDS011;30830;53.704;10.004;2022-08-11T06:12:16;2.72;;;2.53;;
45065;SDS011;30830;53.704;10.004;2022-08-11T06:14:46;6.10;;;2.63;;
45065;SDS011;30830;53.704;10.004;2022-08-11T06:17:24;4.00;;;2.50;;
45065;SDS011;30830;53.704;10.004;2022-08-11T06:19:56;2.83;;;2.30;;
45065;SDS011;30830;53.704;10.004;2022-08-11T06:22:31;4.78;;;2.58;;
45065;SDS011;30830;53.704;10.004;2022-08-11T06:24:59;3.00;;;2.40;;
45065;SDS011;30830;53.704;10.004;2022-08-11T06:27:31;4.03;;;2.10;;
45065;SDS011;30830;53.704;10.004;2022-08-11T06:29:59;2.75;;;2.53;;
45065;SDS011;30830;53.704;10.004;2022-08-11T06:32:28;2.90;;;2.70;;
45065;SDS011;30830;53.704;10.004;2022-08-11T06:40:04;5.38;;;2.70;;
45065;SDS011;30830;53.704;10.004;2022-08-11T06:42:42;2.90;;;2.70;;
45065;SDS011;30830;53.704;10.004;2022-08-11T06:45:15;2.30;;;2.10;;
45065;SDS011;30830;53.704;10.004;2022-08-11T06:48:04;4.15;;;2.45;;
45065;SDS011;30830;53.704;10.004;2022-08-11T06:50:39;2.40;;;2.10;;
45065;SDS011;30830;53.704;10.004;2022-08-11T06:53:24;10.98;;;3.63;;
45065;SDS011;30830;53.704;10.004;2022-08-11T06:55:50;3.25;;;2.00;;
45065;SDS011;30830;53.704;10.004;2022-08-11T06:58:38;5.40;;;2.00;;
45065;SDS011;30830;53.704;10.004;2022-08-11T07:01:28;2.58;;;2.22;;
45065;SDS011;30830;53.704;10.004;2022-08-11T07:04:00;2.78;;;2.00;;
45065;SDS011;30830;53.704;10.004;2022-08-11T07:09:46;2.90;;;2.67;;
45065;SDS011;30830;53.704;10.004;2022-08-11T07:12:40;2.40;;;1.88;;
45065;SDS011;30830;53.704;10.004;2022-08-11T07:15:31;3.35;;;2.03;;
45065;SDS011;30830;53.704;10.004;2022-08-11T07:18:06;2.35;;;1.88;;
45065;SDS011;30830;53.704;10.004;2022-08-11T07:21:06;4.32;;;2.17;;
45065;SDS011;30830;53.704;10.004;2022-08-11T07:23:56;2.47;;;1.90;;
45065;SDS011;30830;53.704;10.004;2022-08-11T07:26:44;3.05;;;2.25;;
45065;SDS011;30830;53.704;10.004;2022-08-11T07:29:34;2.55;;;1.88;;
45065;SDS011;30830;53.704;10.004;2022-08-11T07:32:07;5.13;;;1.88;;
45065;SDS011;30830;53.704;10.004;2022-08-11T07:35:07;2.63;;;2.10;;
45065;SDS011;30830;53.704;10.004;2022-08-11T07:37:40;3.00;;;2.22;;
45065;SDS011;30830;53.704;10.004;2022-08-11T07:40:09;3.42;;;2.20;;
45065;SDS011;30830;53.704;10.004;2022-08-11T07:42:35;3.60;;;1.98;;
45065;SDS011;30830;53.704;10.004;2022-08-11T07:45:05;2.45;;;1.95;;
45065;SDS011;30830;53.704;10.004;2022-08-11T07:47:51;2.63;;;1.88;;
45065;SDS011;30830;53.704;10.004;2022-08-11T07:53:26;3.63;;;1.90;;
45065;SDS011;30830;53.704;10.004;2022-08-11T07:55:54;2.35;;;2.03;;
45065;SDS011;30830;53.704;10.004;2022-08-11T07:58:22;2.03;;;1.73;;
45065;SDS011;30830;53.704;10.004;2022-08-11T08:01:07;2.72;;;2.10;;
45065;SDS011;30830;53.704;10.004;2022-08-11T08:03:53;2.92;;;1.83;;
45065;SDS011;30830;53.704;10.004;2022-08-11T08:06:37;1.95;;;1.85;;
45065;SDS011;30830;53.704;10.004;2022-08-11T08:09:23;1.90;;;1.77;;
45065;SDS011;30830;53.704;10.004;2022-08-11T08:12:08;3.42;;;1.65;;
45065;SDS011;30830;53.704;10.004;2022-08-11T08:14:53;3.30;;;1.70;;
45065;SDS011;30830;53.704;10.004;2022-08-11T08:17:39;2.00;;;1.83;;
45065;SDS011;30830;53.704;10.004;2022-08-11T08:20:23;2.85;;;2.00;;
45065;SDS011;30830;53.704;10.004;2022-08-11T08:22:57;1.93;;;1.63;;
45065;SDS011;30830;53.704;10.004;2022-08-11T08:25:25;2.97;;;1.83;;
45065;SDS011;30830;53.704;10.004;2022-08-11T08:30:27;2.45;;;1.63;;
45065;SDS011;30830;53.704;10.004;2022-08-11T08:35:40;2.22;;;2.03;;
45065;SDS011;30830;53.704;10.004;2022-08-11T08:38:08;2.28;;;1.90;;
45065;SDS011;30830;53.704;10.004;2022-08-11T08:40:34;2.88;;;2.05;;
45065;SDS011;30830;53.704;10.004;2022-08-11T08:43:02;2.53;;;1.70;;
45065;SDS011;30830;53.704;10.004;2022-08-11T08:45:33;3.75;;;1.80;;
45065;SDS011;30830;53.704;10.004;2022-08-11T08:48:02;1.73;;;1.60;;
45065;SDS011;30830;53.704;10.004;2022-08-11T08:50:33;2.47;;;2.08;;
45065;SDS011;30830;53.704;10.004;2022-08-11T08:53:24;2.50;;;2.30;;
45065;SDS011;30830;53.704;10.004;2022-08-11T08:55:54;2.42;;;1.45;;
45065;SDS011;30830;53.704;10.004;2022-08-11T08:58:21;2.08;;;1.60;;
45065;SDS011;30830;53.704;10.004;2022-08-11T09:00:49;2.58;;;1.80;;
45065;SDS011;30830;53.704;10.004;2022-08-11T09:03:16;2.53;;;1.80;;
45065;SDS011;30830;53.704;10.004;2022-08-11T09:05:43;2.70;;;1.65;;
45065;SDS011;30830;53.704;10.004;2022-08-11T09:08:10;2.78;;;1.73;;
45065;SDS011;30830;53.704;10.004;2022-08-11T09:10:36;2.53;;;1.77;;
45065;SDS011;30830;53.704;10.004;2022-08-11T09:13:03;2.10;;;1.75;;
45065;SDS011;30830;53.704;10.004;2022-08-11T09:15:31;4.35;;;1.70;;
45065;SDS011;30830;53.704;10.004;2022-08-11T09:17:58;3.95;;;1.55;;
45065;SDS011;30830;53.704;10.004;2022-08-11T09:20:33;2.42;;;1.70;;
45065;SDS011;30830;53.704;10.004;2022-08-11T09:23:02;1.95;;;1.30;;
45065;SDS011;30830;53.704;10.004;2022-08-11T09:25:49;2.45;;;1.50;;
45065;SDS011;30830;53.704;10.004;2022-08-11T09:28:35;1.55;;;1.23;;
45065;SDS011;30830;53.704;10.004;2022-08-11T09:31:01;2.13;;;1.25;;
45065;SDS011;30830;53.704;10.004;2022-08-11T09:33:29;1.95;;;1.50;;
45065;SDS011;30830;53.704;10.004;2022-08-11T09:35:56;2.75;;;1.50;;
45065;SDS011;30830;53.704;10.004;2022-08-11T09:38:44;3.25;;;1.27;;
45065;SDS011;30830;53.704;10.004;2022-08-11T09:41:29;1.40;;;1.25;;
45065;SDS011;30830;53.704;10.004;2022-08-11T09:43:56;1.75;;;1.35;;
45065;SDS011;30830;53.704;10.004;2022-08-11T09:49:08;1.50;;;1.30;;
45065;SDS011;30830;53.704;10.004;2022-08-11T09:51:34;1.80;;;1.70;;
45065;SDS011;30830;53.704;10.004;2022-08-11T09:54:01;1.75;;;1.52;;
45065;SDS011;30830;53.704;10.004;2022-08-11T09:56:30;1.15;;;1.02;;
45065;SDS011;30830;53.704;10.004;2022-08-11T09:59:16;1.33;;;1.20;;
45065;SDS011;30830;53.704;10.004;2022-08-11T10:01:45;1.50;;;1.38;;
45065;SDS011;30830;53.704;10.004;2022-08-11T10:06:40;1.35;;;1.25;;
45065;SDS011;30830;53.704;10.004;2022-08-11T10:09:26;3.58;;;1.70;;
45065;SDS011;30830;53.704;10.004;2022-08-11T10:12:05;2.15;;;1.25;;
45065;SDS011;30830;53.704;10.004;2022-08-11T10:14:33;1.65;;;1.55;;
45065;SDS011;30830;53.704;10.004;2022-08-11T10:17:23;2.38;;;1.50;;
45065;SDS011;30830;53.704;10.004;2022-08-11T10:19:49;2.50;;;1.30;;
45065;SDS011;30830;53.704;10.004;2022-08-11T10:22:15;1.65;;;1.30;;
45065;SDS011;30830;53.704;10.004;2022-08-11T10:25:00;1.42;;;1.05;;
45065;SDS011;30830;53.704;10.004;2022-08-11T10:27:45;1.53;;;1.10;;
45065;SDS011;30830;53.704;10.004;2022-08-11T10:30:22;3.72;;;1.63;;
45065;SDS011;30830;53.704;10.004;2022-08-11T10:33:11;1.80;;;1.40;;
45065;SDS011;30830;53.704;10.004;2022-08-11T10:35:56;2.30;;;1.20;;
45065;SDS011;30830;53.704;10.004;2022-08-11T10:38:23;1.48;;;1.10;;
45065;SDS011;30830;53.704;10.004;2022-08-11T10:40:50;2.15;;;1.30;;
45065;SDS011;30830;53.704;10.004;2022-08-11T10:43:36;2.00;;;1.13;;
45065;SDS011;30830;53.704;10.004;2022-08-11T10:46:04;1.42;;;1.05;;
45065;SDS011;30830;53.704;10.004;2022-08-11T10:48:52;1.33;;;1.23;;
45065;SDS011;30830;53.704;10.004;2022-08-11T10:51:20;2.88;;;1.20;;
45065;SDS011;30830;53.704;10.004;2022-08-11T10:54:05;2.47;;;1.27;;
45065;SDS011;30830;53.704;10.004;2022-08-11T10:56:49;2.17;;;1.00;;
45065;SDS011;30830;53.704;10.004;2022-08-11T10:59:35;2.72;;;1.20;;
45065;SDS011;30830;53.704;10.004;2022-08-11T11:02:01;1.52;;;1.00;;
45065;SDS011;30830;53.704;10.004;2022-08-11T11:04:39;1.40;;;1.30;;
45065;SDS011;30830;53.704;10.004;2022-08-11T11:07:21;1.30;;;1.20;;
45065;SDS011;30830;53.704;10.004;2022-08-11T11:09:55;1.58;;;1.10;;
45065;SDS011;30830;53.704;10.004;2022-08-11T11:12:33;2.55;;;1.52;;
45065;SDS011;30830;53.704;10.004;2022-08-11T11:15:22;1.70;;;1.13;;
45065;SDS011;30830;53.704;10.004;2022-08-11T11:23:27;1.60;;;1.35;;
45065;SDS011;30830;53.704;10.004;2022-08-11T11:26:24;2.67;;;1.60;;
45065;SDS011;30830;53.704;10.004;2022-08-11T11:29:14;3.85;;;1.70;;
45065;SDS011;30830;53.704;10.004;2022-08-11T11:31:47;3.15;;;1.75;;
45065;SDS011;30830;53.704;10.004;2022-08-11T11:37:20;2.17;;;2.00;;
45065;SDS011;30830;53.704;10.004;2022-08-11T11:39:47;3.00;;;1.67;;
45065;SDS011;30830;53.704;10.004;2022-08-11T11:42:14;4.10;;;1.20;;
45065;SDS011;30830;53.704;10.004;2022-08-11T11:44:42;2.53;;;1.45;;
45065;SDS011;30830;53.704;10.004;2022-08-11T11:47:10;4.90;;;1.30;;
45065;SDS011;30830;53.704;10.004;2022-08-11T11:49:36;1.92;;;1.35;;
45065;SDS011;30830;53.704;10.004;2022-08-11T11:52:07;5.38;;;1.38;;
45065;SDS011;30830;53.704;10.004;2022-08-11T11:54:37;8.88;;;2.60;;
45065;SDS011;30830;53.704;10.004;2022-08-11T11:57:04;1.42;;;1.20;;
45065;SDS011;30830;53.704;10.004;2022-08-11T11:59:48;4.88;;;1.45;;
45065;SDS011;30830;53.704;10.004;2022-08-11T12:02:35;2.22;;;1.30;;
45065;SDS011;30830;53.704;10.004;2022-08-11T12:05:01;1.10;;;1.00;;
45065;SDS011;30830;53.704;10.004;2022-08-11T12:07:28;1.02;;;0.98;;
45065;SDS011;30830;53.704;10.004;2022-08-11T12:10:13;1.30;;;1.08;;
45065;SDS011;30830;53.704;10.004;2022-08-11T12:12:41;5.68;;;1.25;;
45065;SDS011;30830;53.704;10.004;2022-08-11T12:15:26;0.93;;;0.88;;
45065;SDS011;30830;53.704;10.004;2022-08-11T12:17:52;2.38;;;1.05;;
45065;SDS011;30830;53.704;10.004;2022-08-11T12:20:20;1.77;;;0.93;;
45065;SDS011;30830;53.704;10.004;2022-08-11T12:22:47;2.97;;;1.10;;
45065;SDS011;30830;53.704;10.004;2022-08-11T12:28:18;1.40;;;1.08;;
45065;SDS011;30830;53.704;10.004;2022-08-11T12:30:46;1.35;;;1.10;;
45065;SDS011;30830;53.704;10.004;2022-08-11T12:33:14;1.45;;;0.93;;
45065;SDS011;30830;53.704;10.004;2022-08-11T12:35:41;1.80;;;1.10;;
45065;SDS011;30830;53.704;10.004;2022-08-11T12:38:07;1.50;;;0.73;;
45065;SDS011;30830;53.704;10.004;2022-08-11T12:40:33;2.10;;;1.10;;
45065;SDS011;30830;53.704;10.004;2022-08-11T12:43:41;1.30;;;1.05;;
45065;SDS011;30830;53.704;10.004;2022-08-11T12:46:30;0.93;;;0.90;;
45065;SDS011;30830;53.704;10.004;2022-08-11T12:48:59;2.65;;;0.90;;
45065;SDS011;30830;53.704;10.004;2022-08-11T12:51:50;1.20;;;0.88;;
45065;SDS011;30830;53.704;10.004;2022-08-11T12:57:08;2.95;;;1.00;;
45065;SDS011;30830;53.704;10.004;2022-08-11T12:59:56;2.22;;;0.70;;
45065;SDS011;30830;53.704;10.004;2022-08-11T13:02:43;1.17;;;0.90;;
45065;SDS011;30830;53.704;10.004;2022-08-11T13:05:29;1.75;;;0.93;;
45065;SDS011;30830;53.704;10.004;2022-08-11T13:07:57;0.70;;;0.70;;
45065;SDS011;30830;53.704;10.004;2022-08-11T13:10:25;1.23;;;0.80;;
45065;SDS011;30830;53.704;10.004;2022-08-11T13:13:12;2.47;;;0.93;;
45065;SDS011;30830;53.704;10.004;2022-08-11T13:15:38;1.30;;;1.20;;
45065;SDS011;30830;53.704;10.004;2022-08-11T13:18:05;2.53;;;0.90;;
45065;SDS011;30830;53.704;10.004;2022-08-11T13:20:32;1.33;;;0.80;;
45065;SDS011;30830;53.704;10.004;2022-08-11T13:22:58;3.17;;;0.90;;
45065;SDS011;30830;53.704;10.004;2022-08-11T13:25:27;1.95;;;0.98;;
45065;SDS011;30830;53.704;10.004;2022-08-11T13:27:56;2.88;;;0.88;;
45065;SDS011;30830;53.704;10.004;2022-08-11T13:30:24;1.73;;;0.90;;
45065;SDS011;30830;53.704;10.004;2022-08-11T13:33:11;0.63;;;0.63;;
45065;SDS011;30830;53.704;10.004;2022-08-11T13:35:39;2.45;;;1.00;;
45065;SDS011;30830;53.704;10.004;2022-08-11T13:38:05;1.30;;;0.70;;
45065;SDS011;30830;53.704;10.004;2022-08-11T13:40:37;0.73;;;0.73;;
45065;SDS011;30830;53.704;10.004;2022-08-11T13:43:04;2.47;;;0.90;;
45065;SDS011;30830;53.704;10.004;2022-08-11T13:45:30;1.17;;;0.98;;
45065;SDS011;30830;53.704;10.004;2022-08-11T13:47:57;1.20;;;0.60;;
45065;SDS011;30830;53.704;10.004;2022-08-11T13:50:25;1.55;;;0.90;;
45065;SDS011;30830;53.704;10.004;2022-08-11T13:53:10;1.13;;;0.82;;
45065;SDS011;30830;53.704;10.004;2022-08-11T13:55:39;2.20;;;1.00;;
45065;SDS011;30830;53.704;10.004;2022-08-11T13:58:07;2.83;;;1.40;;
45065;SDS011;30830;53.704;10.004;2022-08-11T14:00:34;1.25;;;0.70;;
45065;SDS011;30830;53.704;10.004;2022-08-11T14:03:00;0.82;;;0.82;;
45065;SDS011;30830;53.704;10.004;2022-08-11T14:05:30;3.03;;;1.10;;
45065;SDS011;30830;53.704;10.004;2022-08-11T14:08:03;1.00;;;1.00;;
45065;SDS011;30830;53.704;10.004;2022-08-11T14:10:34;1.75;;;1.25;;
45065;SDS011;30830;53.704;10.004;2022-08-11T14:13:06;1.15;;;1.05;;
45065;SDS011;30830;53.704;10.004;2022-08-11T14:15:53;1.10;;;1.00;;
45065;SDS011;30830;53.704;10.004;2022-08-11T14:18:26;1.42;;;1.05;;
45065;SDS011;30830;53.704;10.004;2022-08-11T14:20:54;1.42;;;0.90;;
45065;SDS011;30830;53.704;10.004;2022-08-11T14:23:41;1.67;;;1.13;;
45065;SDS011;30830;53.704;10.004;2022-08-11T14:26:10;1.08;;;1.00;;
45065;SDS011;30830;53.704;10.004;2022-08-11T14:31:30;1.23;;;0.88;;
45065;SDS011;30830;53.704;10.004;2022-08-11T14:33:58;1.55;;;0.75;;
45065;SDS011;30830;53.704;10.004;2022-08-11T14:36:29;1.23;;;1.13;;
45065;SDS011;30830;53.704;10.004;2022-08-11T14:39:07;1.63;;;0.90;;
45065;SDS011;30830;53.704;10.004;2022-08-11T14:41:59;0.85;;;0.85;;
45065;SDS011;30830;53.704;10.004;2022-08-11T14:44:50;4.10;;;1.08;;
45065;SDS011;30830;53.704;10.004;2022-08-11T14:47:38;3.92;;;1.52;;
45065;SDS011;30830;53.704;10.004;2022-08-11T14:50:07;2.13;;;1.20;;
45065;SDS011;30830;53.704;10.004;2022-08-11T14:52:59;2.80;;;1.20;;
45065;SDS011;30830;53.704;10.004;2022-08-11T14:55:28;1.75;;;1.23;;
45065;SDS011;30830;53.704;10.004;2022-08-11T14:58:18;2.40;;;1.10;;
45065;SDS011;30830;53.704;10.004;2022-08-11T15:00:44;4.53;;;1.60;;
45065;SDS011;30830;53.704;10.004;2022-08-11T15:03:11;3.38;;;1.52;;
45065;SDS011;30830;53.704;10.004;2022-08-11T15:08:14;2.45;;;1.20;;
45065;SDS011;30830;53.704;10.004;2022-08-11T15:10:41;1.50;;;1.02;;
45065;SDS011;30830;53.704;10.004;2022-08-11T15:13:07;2.38;;;1.42;;
45065;SDS011;30830;53.704;10.004;2022-08-11T15:15:34;1.40;;;1.10;;
45065;SDS011;30830;53.704;10.004;2022-08-11T15:18:20;1.40;;;1.30;;
45065;SDS011;30830;53.704;10.004;2022-08-11T15:20:48;1.80;;;1.10;;
45065;SDS011;30830;53.704;10.004;2022-08-11T15:23:33;1.67;;;1.27;;
45065;SDS011;30830;53.704;10.004;2022-08-11T15:26:20;2.15;;;1.10;;
45065;SDS011;30830;53.704;10.004;2022-08-11T15:29:35;1.83;;;1.27;;
45065;SDS011;30830;53.704;10.004;2022-08-11T15:32:24;1.65;;;1.27;;
45065;SDS011;30830;53.704;10.004;2022-08-11T15:35:10;1.33;;;1.23;;
45065;SDS011;30830;53.704;10.004;2022-08-11T15:37:56;2.35;;;1.02;;
45065;SDS011;30830;53.704;10.004;2022-08-11T15:40:28;2.22;;;1.40;;
45065;SDS011;30830;53.704;10.004;2022-08-11T15:43:27;3.10;;;1.38;;
45065;SDS011;30830;53.704;10.004;2022-08-11T15:46:27;1.98;;;1.60;;
45065;SDS011;30830;53.704;10.004;2022-08-11T15:54:14;2.45;;;1.42;;
45065;SDS011;30830;53.704;10.004;2022-08-11T15:56:43;2.70;;;1.23;;
45065;SDS011;30830;53.704;10.004;2022-08-11T15:59:13;3.15;;;1.10;;
45065;SDS011;30830;53.704;10.004;2022-08-11T16:01:59;2.90;;;1.10;;
45065;SDS011;30830;53.704;10.004;2022-08-11T16:04:35;3.17;;;1.10;;
45065;SDS011;30830;53.704;10.004;2022-08-11T16:07:04;1.73;;;1.20;;
45065;SDS011;30830;53.704;10.004;2022-08-11T16:15:30;1.45;;;1.20;;
45065;SDS011;30830;53.704;10.004;2022-08-11T16:18:20;1.20;;;1.10;;
45065;SDS011;30830;53.704;10.004;2022-08-11T16:20:49;1.20;;;1.10;;
45065;SDS011;30830;53.704;10.004;2022-08-11T16:23:19;2.03;;;1.25;;
45065;SDS011;30830;53.704;10.004;2022-08-11T16:25:49;1.02;;;0.93;;
45065;SDS011;30830;53.704;10.004;2022-08-11T16:28:17;2.97;;;1.13;;
45065;SDS011;30830;53.704;10.004;2022-08-11T16:30:45;3.20;;;1.33;;
45065;SDS011;30830;53.704;10.004;2022-08-11T16:33:12;4.53;;;1.35;;
45065;SDS011;30830;53.704;10.004;2022-08-11T16:35:39;3.25;;;1.10;;
45065;SDS011;30830;53.704;10.004;2022-08-11T16:38:24;3.03;;;1.20;;
45065;SDS011;30830;53.704;10.004;2022-08-11T16:41:08;2.22;;;1.20;;
45065;SDS011;30830;53.704;10.004;2022-08-11T16:43:44;3.25;;;1.35;;
45065;SDS011;30830;53.704;10.004;2022-08-11T16:46:29;1.30;;;1.20;;
45065;SDS011;30830;53.704;10.004;2022-08-11T16:49:35;3.25;;;1.00;;
45065;SDS011;30830;53.704;10.004;2022-08-11T16:51:58;1.35;;;1.20;;
45065;SDS011;30830;53.704;10.004;2022-08-11T16:54:27;5.03;;;1.25;;
45065;SDS011;30830;53.704;10.004;2022-08-11T16:56:55;2.63;;;0.95;;
45065;SDS011;30830;53.704;10.004;2022-08-11T16:59:42;1.10;;;0.95;;
45065;SDS011;30830;53.704;10.004;2022-08-11T17:02:10;1.23;;;1.13;;
45065;SDS011;30830;53.704;10.004;2022-08-11T17:04:58;1.13;;;1.00;;
45065;SDS011;30830;53.704;10.004;2022-08-11T17:07:49;4.88;;;1.42;;
45065;SDS011;30830;53.704;10.004;2022-08-11T17:10:40;2.97;;;1.10;;
45065;SDS011;30830;53.704;10.004;2022-08-11T17:13:39;1.65;;;1.02;;
45065;SDS011;30830;53.704;10.004;2022-08-11T17:16:21;3.25;;;0.90;;
45065;SDS011;30830;53.704;10.004;2022-08-11T17:18:56;1.10;;;1.00;;
45065;SDS011;30830;53.704;10.004;2022-08-11T17:21:26;2.13;;;1.38;;
45065;SDS011;30830;53.704;10.004;2022-08-11T17:24:27;1.45;;;1.02;;
45065;SDS011;30830;53.704;10.004;2022-08-11T17:26:46;3.50;;;1.10;;
45065;SDS011;30830;53.704;10.004;2022-08-11T17:32:00;1.30;;;1.05;;
45065;SDS011;30830;53.704;10.004;2022-08-11T17:34:47;1.90;;;1.10;;
45065;SDS011;30830;53.704;10.004;2022-08-11T17:37:33;5.13;;;1.60;;
45065;SDS011;30830;53.704;10.004;2022-08-11T17:40:05;1.83;;;1.38;;
45065;SDS011;30830;53.704;10.004;2022-08-11T17:42:33;1.13;;;0.95;;
45065;SDS011;30830;53.704;10.004;2022-08-11T17:45:19;1.50;;;1.23;;
45065;SDS011;30830;53.704;10.004;2022-08-11T17:48:05;1.17;;;0.90;;
45065;SDS011;30830;53.704;10.004;2022-08-11T17:50:50;1.77;;;1.10;;
45065;SDS011;30830;53.704;10.004;2022-08-11T17:53:40;1.55;;;1.23;;
45065;SDS011;30830;53.704;10.004;2022-08-11T17:56:26;1.92;;;0.93;;
45065;SDS011;30830;53.704;10.004;2022-08-11T17:59:15;0.70;;;0.70;;
45065;SDS011;30830;53.704;10.004;2022-08-11T18:02:02;1.02;;;0.93;;
45065;SDS011;30830;53.704;10.004;2022-08-11T18:04:51;2.47;;;1.40;;
45065;SDS011;30830;53.704;10.004;2022-08-11T18:07:19;2.60;;;0.80;;
45065;SDS011;30830;53.704;10.004;2022-08-11T18:10:05;1.80;;;0.85;;
45065;SDS011;30830;53.704;10.004;2022-08-11T18:12:51;3.08;;;1.38;;
45065;SDS011;30830;53.704;10.004;2022-08-11T18:15:37;2.00;;;1.25;;
45065;SDS011;30830;53.704;10.004;2022-08-11T18:21:08;3.60;;;1.23;;
45065;SDS011;30830;53.704;10.004;2022-08-11T18:23:55;1.85;;;1.30;;
45065;SDS011;30830;53.704;10.004;2022-08-11T18:26:43;1.63;;;1.05;;
45065;SDS011;30830;53.704;10.004;2022-08-11T18:32:14;1.67;;;1.38;;
45065;SDS011;30830;53.704;10.004;2022-08-11T18:35:00;1.05;;;0.82;;
45065;SDS011;30830;53.704;10.004;2022-08-11T18:37:46;2.58;;;1.33;;
45065;SDS011;30830;53.704;10.004;2022-08-11T18:40:32;2.70;;;1.13;;
45065;SDS011;30830;53.704;10.004;2022-08-11T18:43:18;3.90;;;1.20;;
45065;SDS011;30830;53.704;10.004;2022-08-11T18:46:04;1.00;;;0.90;;
45065;SDS011;30830;53.704;10.004;2022-08-11T18:48:52;7.10;;;1.25;;
45065;SDS011;30830;53.704;10.004;2022-08-11T18:51:40;2.30;;;1.20;;
45065;SDS011;30830;53.704;10.004;2022-08-11T18:54:30;1.88;;;1.15;;
45065;SDS011;30830;53.704;10.004;2022-08-11T18:57:19;2.50;;;1.30;;
45065;SDS011;30830;53.704;10.004;2022-08-11T19:00:03;1.48;;;1.00;;
45065;SDS011;30830;53.704;10.004;2022-08-11T19:02:48;0.93;;;0.90;;
45065;SDS011;30830;53.704;10.004;2022-08-11T19:05:34;2.47;;;1.13;;
45065;SDS011;30830;53.704;10.004;2022-08-11T19:08:20;2.45;;;1.05;;
45065;SDS011;30830;53.704;10.004;2022-08-11T19:11:10;1.23;;;1.13;;
45065;SDS011;30830;53.704;10.004;2022-08-11T19:16:41;1.27;;;1.17;;
45065;SDS011;30830;53.704;10.004;2022-08-11T19:19:26;1.38;;;1.10;;
45065;SDS011;30830;53.704;10.004;2022-08-11T19:22:13;1.70;;;1.20;;
45065;SDS011;30830;53.704;10.004;2022-08-11T19:25:00;1.38;;;1.13;;
45065;SDS011;30830;53.704;10.004;2022-08-11T19:27:46;2.42;;;1.15;;
45065;SDS011;30830;53.704;10.004;2022-08-11T19:30:31;1.15;;;1.05;;
45065;SDS011;30830;53.704;10.004;2022-08-11T19:33:16;1.10;;;1.00;;
45065;SDS011;30830;53.704;10.004;2022-08-11T19:36:02;2.92;;;1.30;;